Time;durP1;ratioP1;P1;durP2;ratioP2;P2;SDS_P1;SDS_P2;PMS_P1;PMS_P2;Temp;Humidity;BMP_temperature;BMP_pressure;BME280_temperature;BME280_humidity;BME280_pressure;Samples;Min_cycle;Max_cycle;Signal;HPM_P1;HPM_P2
2021/04/15 00:00:20;;;;;;;2.80;2.07;;;14.20;58.50;;;;;;4975704;28;20540;-53
2021/04/15 00:02:47;;;;;;;2.03;1.70;;;14.20;58.50;;;;;;4975459;28;20442;-53
2021/04/15 00:05:16;;;;;;;1.97;1.87;;;14.10;59.00;;;;;;4974948;28;20512;-54
2021/04/15 00:07:42;;;;;;;2.23;2.03;;;14.10;59.10;;;;;;4975531;28;20493;-54
2021/04/15 00:10:11;;;;;;;1.93;1.80;;;14.10;58.60;;;;;;4975310;28;20464;-53
2021/04/15 00:12:38;;;;;;;2.33;1.50;;;14.10;58.60;;;;;;4975033;28;20524;-54
2021/04/15 00:15:07;;;;;;;2.23;1.70;;;14.10;58.70;;;;;;4974886;28;20525;-52
2021/04/15 00:17:34;;;;;;;4.77;1.90;;;14.00;58.60;;;;;;4975259;28;20442;-53
2021/04/15 00:20:01;;;;;;;2.67;1.93;;;14.00;58.60;;;;;;4974970;28;20478;-52
2021/04/15 00:22:28;;;;;;;1.87;1.77;;;14.00;58.60;;;;;;4975594;28;20508;-51
2021/04/15 00:24:55;;;;;;;2.13;1.97;;;14.00;58.60;;;;;;4975111;28;20481;-51
2021/04/15 00:27:21;;;;;;;1.70;1.57;;;14.00;58.70;;;;;;4975185;28;20473;-53
2021/04/15 00:29:49;;;;;;;2.20;1.87;;;14.00;58.60;;;;;;4975583;28;20528;-53
2021/04/15 00:32:16;;;;;;;2.10;1.93;;;14.00;58.50;;;;;;4975173;28;20438;-55
2021/04/15 00:34:43;;;;;;;1.70;1.60;;;13.90;58.50;;;;;;4974867;28;20438;-52
2021/04/15 00:37:10;;;;;;;2.67;1.70;;;13.90;58.60;;;;;;4975280;28;20476;-54
2021/04/15 00:39:36;;;;;;;2.03;1.83;;;13.90;58.70;;;;;;4973589;28;20438;-53
2021/04/15 00:42:04;;;;;;;2.07;1.87;;;13.90;58.80;;;;;;4974607;28;20481;-53
2021/04/15 00:44:30;;;;;;;2.17;1.97;;;13.90;58.80;;;;;;4974849;28;20557;-51
2021/04/15 00:46:59;;;;;;;2.00;1.90;;;13.90;58.80;;;;;;4974752;28;20617;-55
2021/04/15 00:49:29;;;;;;;2.70;1.90;;;13.80;58.80;;;;;;4974501;28;20457;-54
2021/04/15 00:51:57;;;;;;;1.87;1.70;;;13.80;58.80;;;;;;4974656;28;20486;-52
2021/04/15 00:54:34;;;;;;;1.90;1.80;;;13.80;58.90;;;;;;4974625;28;20445;-54
2021/04/15 00:57:01;;;;;;;2.40;1.93;;;13.80;59.00;;;;;;4974546;28;20507;-55
2021/04/15 00:59:28;;;;;;;1.87;1.70;;;13.80;59.10;;;;;;4974374;28;20550;-52
2021/04/15 01:01:55;;;;;;;1.67;1.57;;;13.80;59.10;;;;;;4974742;28;20455;-54
2021/04/15 01:04:23;;;;;;;1.70;1.60;;;13.70;59.10;;;;;;4974490;28;20485;-53
2021/04/15 01:06:50;;;;;;;2.13;1.93;;;13.70;59.10;;;;;;4974336;28;20450;-52
2021/04/15 01:09:17;;;;;;;5.50;1.70;;;13.70;59.20;;;;;;4974297;28;20553;-55
2021/04/15 01:11:54;;;;;;;1.97;1.87;;;13.70;59.10;;;;;;4974525;28;20488;-54
2021/04/15 01:14:25;;;;;;;3.00;1.97;;;13.70;59.30;;;;;;4974461;28;20446;-50
2021/04/15 01:16:59;;;;;;;1.60;1.50;;;13.70;59.30;;;;;;4974444;28;20537;-52
2021/04/15 01:19:51;;;;;;;1.50;1.40;;;13.60;59.30;;;;;;4974150;28;20464;-56
2021/04/15 01:22:30;;;;;;;1.57;1.40;;;13.60;59.30;;;;;;4974509;28;20443;-54
2021/04/15 01:25:01;;;;;;;1.80;1.60;;;13.60;59.40;;;;;;4973881;28;20485;-55
2021/04/15 01:27:34;;;;;;;1.70;1.60;;;13.60;59.50;;;;;;4974110;28;20477;-54
2021/04/15 01:30:23;;;;;;;1.67;1.57;;;13.50;59.40;;;;;;4985772;28;20455;-53
2021/04/15 01:33:01;;;;;;;1.87;1.60;;;13.50;59.50;;;;;;4970495;28;20517;-52
2021/04/15 01:35:30;;;;;;;2.53;1.70;;;13.50;59.60;;;;;;4968144;28;20509;-51
2021/04/15 01:38:02;;;;;;;1.93;1.80;;;13.50;59.50;;;;;;4964244;28;20572;-54
2021/04/15 01:40:31;;;;;;;2.60;1.57;;;13.50;59.50;;;;;;4954659;28;20443;-55
2021/04/15 01:43:00;;;;;;;2.00;1.80;;;13.50;59.50;;;;;;4954625;28;20514;-53
2021/04/15 01:45:28;;;;;;;1.87;1.77;;;13.50;59.60;;;;;;4954129;28;20511;-53
2021/04/15 01:47:57;;;;;;;6.00;1.50;;;13.40;59.50;;;;;;4954473;28;20494;-53
2021/04/15 01:50:26;;;;;;;1.90;1.70;;;13.40;59.60;;;;;;4954203;28;20446;-54
2021/04/15 01:52:56;;;;;;;1.50;1.40;;;13.40;59.70;;;;;;4954555;28;20451;-55
2021/04/15 01:55:26;;;;;;;5.23;2.00;;;13.40;59.70;;;;;;4954359;28;20513;-55
2021/04/15 01:57:59;;;;;;;1.80;1.70;;;13.40;59.80;;;;;;4954344;28;20489;-53
2021/04/15 02:00:29;;;;;;;1.63;1.50;;;13.40;59.80;;;;;;4954258;28;20530;-52
2021/04/15 02:02:57;;;;;;;2.10;1.90;;;13.30;59.80;;;;;;4954511;28;20482;-56
2021/04/15 02:05:25;;;;;;;1.63;1.53;;;13.40;59.80;;;;;;4954230;28;20574;-54
2021/04/15 02:07:54;;;;;;;2.30;1.70;;;13.30;59.80;;;;;;4954187;28;20505;-52
2021/04/15 02:10:21;;;;;;;1.90;1.63;;;13.30;59.80;;;;;;4954257;28;20447;-52
2021/04/15 02:12:49;;;;;;;1.80;1.53;;;13.30;59.90;;;;;;4954369;28;20468;-52
2021/04/15 02:15:19;;;;;;;1.87;1.77;;;13.30;60.00;;;;;;4954212;28;20439;-53
2021/04/15 02:17:47;;;;;;;1.70;1.60;;;13.30;59.90;;;;;;4954300;28;20517;-55
2021/04/15 02:20:15;;;;;;;2.73;1.63;;;13.20;59.90;;;;;;4954109;28;20439;-51
2021/04/15 02:22:47;;;;;;;2.47;1.63;;;13.20;59.90;;;;;;4954251;28;20505;-52
2021/04/15 02:25:25;;;;;;;2.27;1.67;;;13.20;60.00;;;;;;4953480;28;20521;-55
2021/04/15 02:27:56;;;;;;;3.00;1.60;;;13.20;60.00;;;;;;4953872;28;20443;-54
2021/04/15 02:30:25;;;;;;;1.80;1.70;;;13.20;60.00;;;;;;4954144;28;20467;-52
2021/04/15 02:32:58;;;;;;;3.27;2.10;;;13.20;60.00;;;;;;4953888;28;20447;-55
2021/04/15 02:35:28;;;;;;;1.67;1.57;;;13.20;60.10;;;;;;4953695;28;20439;-52
2021/04/15 02:37:56;;;;;;;1.83;1.60;;;13.20;60.20;;;;;;4953779;28;20466;-55
2021/04/15 02:40:24;;;;;;;3.33;1.77;;;13.10;60.20;;;;;;4953955;28;20475;-54
2021/04/15 02:42:51;;;;;;;2.80;1.50;;;13.10;60.30;;;;;;4953825;28;20542;-51
2021/04/15 02:45:22;;;;;;;2.57;2.10;;;13.10;60.40;;;;;;4953522;28;20525;-52
2021/04/15 02:47:52;;;;;;;1.70;1.60;;;13.10;60.40;;;;;;4953746;28;20447;-53
2021/04/15 02:50:21;;;;;;;2.37;1.90;;;13.10;60.50;;;;;;4953320;28;20549;-53
2021/04/15 02:52:49;;;;;;;4.60;1.77;;;13.10;60.50;;;;;;4953605;28;20451;-52
2021/04/15 02:55:18;;;;;;;2.07;1.80;;;13.10;60.50;;;;;;4953619;28;20535;-55
2021/04/15 02:57:47;;;;;;;2.03;1.43;;;13.00;60.60;;;;;;4953561;28;20482;-55
2021/04/15 03:00:16;;;;;;;1.70;1.60;;;13.00;60.60;;;;;;4953496;28;20443;-55
2021/04/15 03:02:44;;;;;;;1.43;1.33;;;13.00;60.70;;;;;;4952437;28;20465;-52
2021/04/15 03:05:12;;;;;;;1.93;1.47;;;13.00;60.60;;;;;;4952769;28;20466;-51
2021/04/15 03:07:41;;;;;;;2.33;1.73;;;13.00;60.70;;;;;;4951696;28;20459;-53
2021/04/15 03:10:09;;;;;;;1.63;1.50;;;13.00;60.80;;;;;;4953444;28;20482;-51
2021/04/15 03:12:38;;;;;;;1.93;1.83;;;13.00;60.80;;;;;;4969317;28;20530;-56
2021/04/15 03:15:08;;;;;;;1.83;1.73;;;12.90;60.80;;;;;;4972205;28;20434;-55
2021/04/15 03:17:37;;;;;;;1.90;1.80;;;12.90;60.90;;;;;;4971898;28;20478;-55
2021/04/15 03:20:06;;;;;;;1.77;1.40;;;12.90;60.90;;;;;;4969333;28;20521;-54
2021/04/15 03:22:34;;;;;;;2.60;1.60;;;12.90;60.90;;;;;;4953306;28;20443;-53
2021/04/15 03:25:02;;;;;;;2.23;1.97;;;12.80;61.00;;;;;;4952807;28;20506;-55
2021/04/15 03:27:30;;;;;;;1.87;1.77;;;12.90;60.80;;;;;;4952521;28;20521;-55
2021/04/15 03:30:00;;;;;;;1.70;1.60;;;12.90;61.00;;;;;;4953144;28;20471;-52
2021/04/15 03:32:31;;;;;;;2.03;1.83;;;12.90;60.90;;;;;;4953567;28;20470;-53
2021/04/15 03:35:02;;;;;;;1.60;1.50;;;12.80;60.80;;;;;;4952995;28;20445;-54
2021/04/15 03:37:33;;;;;;;1.60;1.50;;;12.80;60.90;;;;;;4953104;28;20470;-53
2021/04/15 03:40:00;;;;;;;1.63;1.53;;;12.80;60.90;;;;;;4952996;28;20442;-53
2021/04/15 03:42:33;;;;;;;1.80;1.70;;;12.80;60.90;;;;;;4952776;28;20439;-52
2021/04/15 03:45:03;;;;;;;2.00;1.50;;;12.80;60.90;;;;;;4952866;28;20566;-55
2021/04/15 03:47:31;;;;;;;1.50;1.40;;;12.80;61.00;;;;;;4953197;28;20471;-51
2021/04/15 03:50:00;;;;;;;1.90;1.70;;;12.70;60.90;;;;;;4952900;28;20455;-55
2021/04/15 03:52:28;;;;;;;1.70;1.60;;;12.70;60.90;;;;;;4952862;28;20447;-55
2021/04/15 03:55:09;;;;;;;3.17;1.73;;;12.70;61.00;;;;;;4952620;28;20505;-55
2021/04/15 03:57:37;;;;;;;3.03;1.60;;;12.70;61.00;;;;;;4952824;28;20446;-55
2021/04/15 04:00:07;;;;;;;2.73;1.87;;;12.70;61.10;;;;;;4952497;28;20443;-52
2021/04/15 04:02:35;;;;;;;1.40;1.30;;;12.70;61.10;;;;;;4952893;28;20443;-53
2021/04/15 04:05:04;;;;;;;1.67;1.57;;;12.60;61.10;;;;;;4952457;28;20484;-55
2021/04/15 04:07:33;;;;;;;2.83;1.63;;;12.70;61.20;;;;;;4952776;28;20466;-55
2021/04/15 04:10:01;;;;;;;1.77;1.43;;;12.60;61.10;;;;;;4952977;28;20478;-53
2021/04/15 04:12:31;;;;;;;1.63;1.53;;;12.60;61.20;;;;;;4952876;28;20534;-53
2021/04/15 04:15:03;;;;;;;1.63;1.53;;;12.60;61.10;;;;;;4955789;28;20431;-53
2021/04/15 04:17:37;;;;;;;1.37;1.27;;;12.60;61.10;;;;;;4955909;28;20454;-52
2021/04/15 04:20:04;;;;;;;1.40;1.40;;;12.60;61.10;;;;;;4955829;28;20443;-52
2021/04/15 04:22:37;;;;;;;2.33;1.63;;;12.60;61.10;;;;;;4956100;28;20482;-54
2021/04/15 04:25:08;;;;;;;2.03;1.37;;;12.60;61.10;;;;;;4955534;28;20522;-55
2021/04/15 04:27:36;;;;;;;1.50;1.37;;;12.60;61.10;;;;;;4955592;28;20516;-53
2021/04/15 04:30:05;;;;;;;1.80;1.40;;;12.60;61.20;;;;;;4955697;28;20499;-54
2021/04/15 04:32:32;;;;;;;2.00;1.57;;;12.60;61.20;;;;;;4955696;28;20439;-54
2021/04/15 04:34:59;;;;;;;1.40;1.40;;;12.50;61.20;;;;;;4955452;28;20439;-54
2021/04/15 04:37:35;;;;;;;1.60;1.50;;;12.50;61.20;;;;;;4954090;28;20519;-53
2021/04/15 04:40:03;;;;;;;1.57;1.47;;;12.50;61.20;;;;;;4954934;28;20493;-54
2021/04/15 04:42:34;;;;;;;1.50;1.40;;;12.50;61.20;;;;;;4955481;28;20447;-52
2021/04/15 04:45:01;;;;;;;1.37;1.27;;;12.50;61.20;;;;;;4976544;28;20478;-55
2021/04/15 04:47:38;;;;;;;2.80;1.60;;;12.50;61.30;;;;;;4969204;28;20495;-52
2021/04/15 04:50:07;;;;;;;1.73;1.60;;;12.50;61.30;;;;;;4973986;28;20446;-51
2021/04/15 04:52:34;;;;;;;1.80;1.70;;;12.50;61.30;;;;;;4967790;28;20475;-52
2021/04/15 04:55:01;;;;;;;1.50;1.40;;;12.50;61.30;;;;;;4955291;28;20505;-51
2021/04/15 04:57:33;;;;;;;1.73;1.60;;;12.40;61.40;;;;;;4955142;28;20440;-55
2021/04/15 05:00:01;;;;;;;1.53;1.40;;;12.50;61.40;;;;;;4955311;28;20504;-54
2021/04/15 05:02:29;;;;;;;1.60;1.50;;;12.40;61.50;;;;;;4955277;28;20508;-51
2021/04/15 05:05:05;;;;;;;1.57;1.33;;;12.40;61.50;;;;;;4955433;28;20475;-53
2021/04/15 05:07:32;;;;;;;1.60;1.50;;;12.40;61.50;;;;;;4955482;28;20438;-55
2021/04/15 05:09:59;;;;;;;2.90;1.47;;;12.50;61.60;;;;;;4955215;28;20448;-52
2021/04/15 05:12:28;;;;;;;2.30;1.20;;;12.40;61.60;;;;;;4954872;28;20447;-54
2021/04/15 05:14:55;;;;;;;2.10;1.63;;;12.40;61.70;;;;;;4955066;28;20444;-54
2021/04/15 05:17:28;;;;;;;1.93;1.30;;;12.40;61.70;;;;;;4955237;28;20467;-55
2021/04/15 05:19:56;;;;;;;3.80;1.60;;;12.40;61.70;;;;;;4955037;28;20538;-53
2021/04/15 05:22:29;;;;;;;2.33;1.90;;;12.40;61.70;;;;;;4954821;28;20477;-53
2021/04/15 05:24:59;;;;;;;1.93;1.80;;;12.40;61.70;;;;;;4954104;28;20536;-51
2021/04/15 05:27:26;;;;;;;1.73;1.50;;;12.40;61.70;;;;;;4954893;28;20439;-49
2021/04/15 05:30:00;;;;;;;1.53;1.43;;;12.40;61.70;;;;;;4954924;28;20497;-54
2021/04/15 05:32:27;;;;;;;1.53;1.30;;;12.40;61.80;;;;;;4954786;28;20550;-52
2021/04/15 05:34:55;;;;;;;2.00;1.73;;;12.40;61.80;;;;;;4954447;28;20443;-55
2021/04/15 05:37:24;;;;;;;2.60;1.60;;;12.40;61.80;;;;;;4954832;28;20479;-52
2021/04/15 05:39:51;;;;;;;3.63;1.40;;;12.40;61.80;;;;;;4954871;28;20471;-55
2021/04/15 05:42:19;;;;;;;2.87;1.43;;;12.40;61.90;;;;;;4954748;28;20494;-56
2021/04/15 05:44:47;;;;;;;1.50;1.40;;;12.40;62.00;;;;;;4954635;28;20570;-56
2021/04/15 05:47:15;;;;;;;1.77;1.67;;;12.40;62.20;;;;;;4954403;28;20483;-55
2021/04/15 05:49:44;;;;;;;2.80;1.73;;;12.50;62.30;;;;;;4954386;28;20524;-55
2021/04/15 05:52:21;;;;;;;1.50;1.40;;;12.50;62.40;;;;;;4954674;28;20467;-56
2021/04/15 05:54:48;;;;;;;1.70;1.60;;;12.50;62.40;;;;;;4954367;28;20505;-56
2021/04/15 05:57:16;;;;;;;3.73;1.70;;;12.50;62.50;;;;;;4954683;28;20534;-55
2021/04/15 05:59:50;;;;;;;1.73;1.63;;;12.50;62.30;;;;;;4954374;28;20529;-57
2021/04/15 06:02:36;;;;;;;3.57;1.40;;;12.50;62.40;;;;;;4954530;28;20504;-54
2021/04/15 06:05:09;;;;;;;1.70;1.60;;;12.50;62.40;;;;;;4954567;28;20475;-56
2021/04/15 06:07:36;;;;;;;3.90;1.90;;;12.60;62.50;;;;;;4954402;28;20447;-54
2021/04/15 06:10:03;;;;;;;2.60;1.77;;;12.60;62.50;;;;;;4953959;28;20439;-56
2021/04/15 06:12:35;;;;;;;1.63;1.50;;;12.70;62.50;;;;;;4954653;28;20444;-56
2021/04/15 06:15:05;;;;;;;1.77;1.67;;;12.70;62.50;;;;;;4954142;28;20435;-56
2021/04/15 06:17:56;;;;;;;4.13;1.70;;;12.70;62.50;;;;;;4954082;28;20443;-55
2021/04/15 06:20:25;;;;;;;1.63;1.53;;;12.80;62.50;;;;;;4954268;28;20542;-57
2021/04/15 06:22:53;;;;;;;3.93;1.90;;;12.80;62.40;;;;;;4953904;28;20540;-53
2021/04/15 06:25:25;;;;;;;2.80;1.90;;;12.80;62.30;;;;;;4954355;28;20470;-56
2021/04/15 06:27:52;;;;;;;2.27;2.07;;;12.90;62.20;;;;;;4954043;28;20447;-56
2021/04/15 06:30:22;;;;;;;2.80;2.37;;;13.00;62.10;;;;;;4953687;28;20534;-54
2021/04/15 06:32:51;;;;;;;4.20;1.97;;;13.00;61.80;;;;;;4954018;28;20497;-54
2021/04/15 06:35:20;;;;;;;1.97;1.60;;;13.10;61.70;;;;;;4953475;28;20451;-56
2021/04/15 06:37:48;;;;;;;5.80;1.63;;;13.20;61.80;;;;;;4954095;28;20593;-56
2021/04/15 06:40:46;;;;;;;3.17;2.37;;;13.20;61.50;;;;;;4953656;28;20544;-56
2021/04/15 06:43:35;;;;;;;2.70;1.63;;;13.30;61.40;;;;;;4975979;28;20438;-56
2021/04/15 06:46:08;;;;;;;2.83;1.60;;;13.30;61.40;;;;;;4953658;28;20483;-55
2021/04/15 06:48:52;;;;;;;1.90;1.80;;;13.40;61.30;;;;;;4953599;28;20455;-55
2021/04/15 06:51:33;;;;;;;1.90;1.80;;;13.50;61.10;;;;;;4953521;28;20542;-55
2021/04/15 06:54:12;;;;;;;3.57;2.00;;;13.60;61.10;;;;;;4953451;28;20535;-60
2021/04/15 06:56:45;;;;;;;4.40;1.90;;;13.60;60.90;;;;;;4953889;28;20447;-60
2021/04/15 06:59:30;;;;;;;2.33;2.13;;;13.70;61.00;;;;;;4953794;28;20473;-54
2021/04/15 07:02:00;;;;;;;1.83;1.50;;;13.70;61.00;;;;;;4954135;28;20419;-53
2021/04/15 07:04:34;;;;;;;2.07;1.93;;;13.80;61.20;;;;;;4953148;28;20443;-61
2021/04/15 07:07:04;;;;;;;2.13;2.03;;;13.80;61.10;;;;;;4953254;28;20514;-61
2021/04/15 07:09:50;;;;;;;3.13;1.60;;;13.90;61.20;;;;;;4953433;28;20515;-61
2021/04/15 07:12:47;;;;;;;2.23;2.00;;;14.00;61.20;;;;;;4953465;28;20514;-53
2021/04/15 07:15:32;;;;;;;2.80;1.60;;;14.00;61.10;;;;;;4953472;28;20439;-54
2021/04/15 07:18:07;;;;;;;1.63;1.53;;;14.20;61.80;;;;;;4953322;28;20439;-60
2021/04/15 07:20:43;;;;;;;2.30;2.10;;;14.20;61.00;;;;;;4953082;28;20434;-60
2021/04/15 07:23:35;;;;;;;2.37;1.70;;;14.30;60.90;;;;;;4953215;28;20481;-60
2021/04/15 07:26:28;;;;;;;2.13;1.93;;;14.40;60.90;;;;;;4953117;28;20570;-61
2021/04/15 07:29:02;;;;;;;3.10;2.10;;;14.50;61.00;;;;;;4953295;28;20542;-61
2021/04/15 07:31:41;;;;;;;2.30;1.80;;;14.50;60.80;;;;;;4953031;28;20448;-62
2021/04/15 07:34:19;;;;;;;5.70;1.90;;;14.60;61.60;;;;;;4953155;28;20443;-61
2021/04/15 07:36:59;;;;;;;3.37;1.90;;;14.70;60.90;;;;;;4953119;28;20427;-61
2021/04/15 07:39:33;;;;;;;4.13;2.10;;;14.80;60.90;;;;;;4953066;28;20459;-55
2021/04/15 07:42:08;;;;;;;1.77;1.57;;;14.80;60.70;;;;;;4952895;28;20439;-52
2021/04/15 07:44:37;;;;;;;4.07;1.80;;;14.90;60.40;;;;;;4952863;28;20503;-57
2021/04/15 07:47:36;;;;;;;2.30;2.10;;;15.00;60.30;;;;;;4955826;28;20495;-55
2021/04/15 07:50:37;;;;;;;3.57;1.90;;;15.10;60.20;;;;;;4964871;28;20480;-55
2021/04/15 07:53:34;;;;;;;2.90;1.70;;;15.30;60.30;;;;;;4973896;28;20521;-54
2021/04/15 07:56:28;;;;;;;1.80;1.70;;;15.40;59.90;;;;;;4975414;28;20434;-54
2021/04/15 07:59:16;;;;;;;2.33;1.90;;;15.50;59.60;;;;;;4972351;28;20450;-55
2021/04/15 08:02:25;;;;;;;3.30;1.90;;;15.60;59.50;;;;;;4975414;28;20525;-54
2021/04/15 08:05:16;;;;;;;3.53;2.30;;;15.80;59.70;;;;;;4984321;28;20525;-52
2021/04/15 08:07:47;;;;;;;7.00;2.80;;;16.00;59.80;;;;;;4975461;28;20503;-52
2021/04/15 08:10:21;;;;;;;13.37;2.77;;;16.20;59.70;;;;;;4975495;28;20536;-61
2021/04/15 08:12:59;;;;;;;14.20;2.40;;;16.50;59.80;;;;;;4974884;28;20497;-61
2021/04/15 08:15:46;;;;;;;18.23;2.70;;;16.80;60.30;;;;;;4975157;28;20464;-61
2021/04/15 08:18:20;;;;;;;7.53;2.67;;;17.00;60.80;;;;;;4975369;28;20437;-61
2021/04/15 08:21:17;;;;;;;4.07;2.13;;;17.20;60.40;;;;;;4975142;28;20431;-62
2021/04/15 08:24:09;;;;;;;13.83;2.73;;;17.50;59.70;;;;;;4985453;28;20446;-61
2021/04/15 08:27:11;;;;;;;17.07;2.63;;;17.60;59.20;;;;;;4974906;28;20524;-64
2021/04/15 08:29:45;;;;;;;8.17;3.47;;;17.70;58.00;;;;;;4975009;28;20483;-56
2021/04/15 08:32:16;;;;;;;8.37;2.50;;;17.80;58.10;;;;;;4975044;28;20448;-56
2021/04/15 08:34:49;;;;;;;8.40;2.07;;;18.00;57.60;;;;;;4974720;28;20481;-57
2021/04/15 08:37:30;;;;;;;10.17;2.27;;;18.10;57.50;;;;;;4975025;28;20466;-56
2021/04/15 08:40:08;;;;;;;5.83;2.20;;;18.10;57.40;;;;;;4974758;28;20454;-56
2021/04/15 08:42:48;;;;;;;5.03;2.37;;;18.20;57.40;;;;;;4975032;28;20458;-54
2021/04/15 08:45:35;;;;;;;5.60;2.37;;;18.30;57.20;;;;;;4975036;28;20496;-55
2021/04/15 08:48:13;;;;;;;3.87;2.17;;;18.30;57.00;;;;;;4975318;28;20447;-64
2021/04/15 08:50:48;;;;;;;8.40;2.30;;;18.50;56.70;;;;;;4974920;28;20454;-55
2021/04/15 08:53:29;;;;;;;5.33;2.37;;;18.70;56.30;;;;;;4974780;28;20435;-54
2021/04/15 08:55:59;;;;;;;6.53;2.43;;;18.80;55.70;;;;;;4973214;28;20438;-57
2021/04/15 08:58:47;;;;;;;4.50;2.13;;;18.90;55.20;;;;;;4974809;28;20480;-56
2021/04/15 09:01:16;;;;;;;5.60;1.90;;;19.00;54.90;;;;;;4973976;28;20533;-58
2021/04/15 09:03:44;;;;;;;3.83;1.60;;;19.20;54.50;;;;;;4974526;28;20457;-58
2021/04/15 09:06:18;;;;;;;6.23;2.03;;;19.20;54.10;;;;;;4974202;28;20470;-61
2021/04/15 09:09:16;;;;;;;3.00;1.90;;;19.30;53.10;;;;;;4974806;28;20446;-62
2021/04/15 09:11:47;;;;;;;3.90;1.53;;;19.40;52.60;;;;;;4974322;28;20440;-63
2021/04/15 09:14:32;;;;;;;3.30;1.90;;;19.50;52.20;;;;;;4974116;28;20525;-64
2021/04/15 09:17:00;;;;;;;2.10;1.50;;;19.50;51.80;;;;;;4974414;28;20442;-64
2021/04/15 09:19:42;;;;;;;3.30;1.50;;;19.60;51.10;;;;;;4974622;28;20461;-64
2021/04/15 09:22:17;;;;;;;3.17;1.40;;;19.70;50.60;;;;;;4974394;28;20496;-64
2021/04/15 09:24:50;;;;;;;4.50;1.70;;;19.80;49.80;;;;;;4974118;28;20517;-64
2021/04/15 09:27:46;;;;;;;4.37;1.47;;;19.80;49.60;;;;;;4974087;28;20486;-64
2021/04/15 09:30:35;;;;;;;13.60;1.70;;;19.80;49.50;;;;;;4974949;28;20507;-64
2021/04/15 09:33:06;;;;;;;5.70;1.30;;;19.90;49.40;;;;;;4986346;28;20446;-64
2021/04/15 09:35:53;;;;;;;6.60;1.60;;;19.90;49.30;;;;;;4973988;28;20423;-64
2021/04/15 09:39:05;;;;;;;8.83;1.70;;;20.00;49.30;;;;;;4974317;28;20454;-64
2021/04/15 09:42:04;;;;;;;5.30;1.93;;;20.10;50.10;;;;;;5000911;28;20523;-64
2021/04/15 09:44:50;;;;;;;20.47;2.60;;;20.10;50.20;;;;;;4967403;28;20451;-64
2021/04/15 09:47:37;;;;;;;14.80;2.37;;;20.20;51.20;;;;;;4976844;28;20490;-64
2021/04/15 09:50:11;;;;;;;19.77;2.10;;;20.00;52.70;;;;;;4970871;28;20489;-64
2021/04/15 09:52:43;;;;;;;16.50;2.13;;;19.80;53.50;;;;;;4966301;28;20445;-64
2021/04/15 09:55:22;;;;;;;14.77;2.50;;;19.70;53.40;;;;;;4964253;28;20450;-64
2021/04/15 09:57:55;;;;;;;7.57;2.33;;;19.60;53.80;;;;;;4964083;28;20444;-64
2021/04/15 10:00:25;;;;;;;14.27;2.00;;;19.50;53.70;;;;;;4963745;28;20434;-63
2021/04/15 10:03:12;;;;;;;9.63;2.30;;;19.60;54.00;;;;;;4963794;28;20434;-64
2021/04/15 10:05:56;;;;;;;7.87;2.20;;;19.60;53.50;;;;;;4962007;28;20441;-64
2021/04/15 10:08:28;;;;;;;4.57;2.37;;;19.60;53.40;;;;;;4963763;28;20494;-61
2021/04/15 10:11:01;;;;;;;6.07;2.13;;;19.60;53.20;;;;;;4963061;28;20687;-61
2021/04/15 10:13:39;;;;;;;7.93;2.30;;;19.60;53.20;;;;;;4963631;28;20437;-62
2021/04/15 10:16:07;;;;;;;11.17;2.57;;;19.70;53.10;;;;;;4963353;28;20583;-63
2021/04/15 10:18:45;;;;;;;7.30;2.20;;;19.80;53.00;;;;;;4961130;28;20459;-63
2021/04/15 10:21:28;;;;;;;4.70;2.00;;;19.80;52.80;;;;;;4963360;28;20417;-62
2021/04/15 10:24:17;;;;;;;9.87;2.30;;;20.00;52.60;;;;;;4963488;28;20431;-62
2021/04/15 10:27:11;;;;;;;14.37;2.30;;;20.10;52.40;;;;;;4967222;28;20539;-63
2021/04/15 10:30:08;;;;;;;11.50;2.30;;;20.20;52.20;;;;;;4963544;28;20435;-62
2021/04/15 10:32:41;;;;;;;7.30;2.00;;;20.00;52.10;;;;;;4961680;28;20427;-62
2021/04/15 10:35:18;;;;;;;7.47;1.80;;;20.10;52.00;;;;;;4965051;28;20447;-63
2021/04/15 10:38:24;;;;;;;5.10;2.00;;;20.00;51.90;;;;;;4963567;28;20461;-62
2021/04/15 10:40:52;;;;;;;8.63;1.77;;;20.10;52.10;;;;;;4965342;28;20410;-61
2021/04/15 10:43:46;;;;;;;9.90;2.10;;;20.20;51.70;;;;;;4960826;28;20427;-59
2021/04/15 10:46:44;;;;;;;1.90;1.80;;;20.30;51.30;;;;;;4963220;28;20470;-60
2021/04/15 10:49:31;;;;;;;4.53;1.97;;;20.10;51.20;;;;;;4930510;28;20455;-63
2021/04/15 10:52:00;;;;;;;8.30;2.10;;;20.00;51.50;;;;;;4960922;28;20434;-63
2021/04/15 10:54:28;;;;;;;8.33;2.07;;;20.00;51.80;;;;;;4962265;28;20436;-63
2021/04/15 10:56:55;;;;;;;15.37;2.23;;;20.00;51.70;;;;;;4960888;28;20568;-62
2021/04/15 10:59:36;;;;;;;5.90;1.80;;;20.00;51.50;;;;;;4961511;28;20475;-62
2021/04/15 11:02:28;;;;;;;18.93;2.20;;;20.30;51.20;;;;;;4961376;28;20500;-63
2021/04/15 11:04:56;;;;;;;2.57;1.70;;;20.50;50.80;;;;;;4962904;28;20507;-61
2021/04/15 11:07:24;;;;;;;6.20;1.80;;;20.40;50.60;;;;;;4961922;28;20561;-62
2021/04/15 11:09:51;;;;;;;3.27;1.60;;;20.20;50.70;;;;;;4962558;28;20463;-61
2021/04/15 11:12:27;;;;;;;6.00;1.97;;;20.20;50.80;;;;;;4963934;28;20496;-62
2021/04/15 11:15:04;;;;;;;6.80;1.67;;;20.60;50.40;;;;;;4966656;28;20465;-60
2021/04/15 11:17:33;;;;;;;5.90;1.70;;;21.50;48.80;;;;;;4972668;28;20424;-61
2021/04/15 11:20:21;;;;;;;5.90;1.77;;;21.60;48.50;;;;;;4969017;28;20440;-62
2021/04/15 11:23:04;;;;;;;5.93;2.07;;;21.50;48.40;;;;;;4960528;28;20418;-62
2021/04/15 11:25:36;;;;;;;4.97;1.87;;;21.30;48.50;;;;;;4961587;28;20430;-61
2021/04/15 11:28:09;;;;;;;6.23;1.80;;;21.20;48.60;;;;;;4970594;28;20526;-62
2021/04/15 11:30:43;;;;;;;4.80;1.53;;;21.10;48.40;;;;;;4970585;28;20441;-61
2021/04/15 11:33:35;;;;;;;7.47;1.93;;;21.10;48.90;;;;;;4962307;28;20421;-61
2021/04/15 11:36:05;;;;;;;1.70;1.60;;;21.10;48.40;;;;;;4964042;28;20482;-61
2021/04/15 11:38:32;;;;;;;2.50;1.50;;;21.00;48.30;;;;;;4961676;28;20422;-58
2021/04/15 11:41:02;;;;;;;5.80;1.70;;;21.10;48.20;;;;;;4964320;28;20468;-58
2021/04/15 11:43:31;;;;;;;7.60;1.83;;;21.10;48.20;;;;;;4968916;28;20581;-60
2021/04/15 11:46:14;;;;;;;7.70;1.80;;;21.30;48.10;;;;;;4962216;28;20473;-59
2021/04/15 11:48:42;;;;;;;1.80;1.63;;;21.20;48.10;;;;;;4972259;28;20409;-58
2021/04/15 11:51:14;;;;;;;7.00;1.60;;;21.00;48.40;;;;;;4952909;28;20441;-59
2021/04/15 11:53:47;;;;;;;10.13;1.63;;;20.80;48.70;;;;;;4961421;28;20405;-59
2021/04/15 11:56:26;;;;;;;8.30;1.90;;;20.80;48.80;;;;;;4971907;28;20445;-60
2021/04/15 11:59:14;;;;;;;2.07;1.40;;;20.90;48.80;;;;;;4955972;28;20460;-59
2021/04/15 12:01:40;;;;;;;7.80;1.50;;;21.10;48.90;;;;;;4953297;28;20429;-61
2021/04/15 12:04:08;;;;;;;13.20;1.70;;;21.50;48.60;;;;;;4953149;28;20470;-58
2021/04/15 12:06:44;;;;;;;4.40;1.40;;;21.60;48.40;;;;;;4952955;28;20449;-58
2021/04/15 12:09:13;;;;;;;4.13;1.50;;;24.10;47.10;;;;;;4953459;28;20423;-59
2021/04/15 12:11:45;;;;;;;7.83;1.57;;;29.60;35.60;;;;;;4954947;28;20439;-59
2021/04/15 12:14:13;;;;;;;6.77;1.20;;;28.40;35.20;;;;;;4972173;28;20526;-59
2021/04/15 12:16:46;;;;;;;3.40;1.40;;;27.10;36.80;;;;;;4972450;28;20474;-59
2021/04/15 12:19:18;;;;;;;3.37;1.13;;;28.70;35.60;;;;;;4972271;28;20433;-59
2021/04/15 12:21:47;;;;;;;5.33;1.17;;;30.60;32.60;;;;;;4972399;28;20426;-59
2021/04/15 12:24:16;;;;;;;0.93;0.90;;;31.80;29.80;;;;;;4972120;28;20510;-59
2021/04/15 12:26:45;;;;;;;2.73;1.53;;;28.70;32.50;;;;;;4969037;28;20466;-57
2021/04/15 12:29:15;;;;;;;3.50;1.40;;;29.20;31.90;;;;;;4972278;28;20484;-59
2021/04/15 12:31:44;;;;;;;2.67;0.90;;;30.00;31.40;;;;;;4972438;28;20467;-60
2021/04/15 12:34:21;;;;;;;0.90;0.90;;;31.90;29.20;;;;;;4972955;28;20548;-60
2021/04/15 12:36:57;;;;;;;1.70;1.17;;;31.90;29.10;;;;;;4975268;28;20532;-60
2021/04/15 12:39:26;;;;;;;3.43;1.33;;;29.80;30.30;;;;;;4975051;28;20488;-59
2021/04/15 12:41:53;;;;;;;1.17;0.97;;;29.20;31.60;;;;;;4974986;28;20541;-58
2021/04/15 12:44:22;;;;;;;0.80;0.80;;;27.90;34.30;;;;;;4974617;28;20452;-59
2021/04/15 12:46:49;;;;;;;1.03;0.87;;;32.40;29.10;;;;;;4964657;28;20570;-59
2021/04/15 12:49:17;;;;;;;3.13;0.80;;;32.90;28.00;;;;;;4955462;28;20450;-57
2021/04/15 12:51:46;;;;;;;5.85;0.88;;;33.90;27.40;;;;;;4955497;28;20458;-58
2021/04/15 12:54:15;;;;;;;1.02;0.60;;;34.10;26.80;;;;;;4955236;28;20588;-59
2021/04/15 12:56:44;;;;;;;0.70;0.70;;;34.00;26.00;;;;;;4955329;28;20204;-59
2021/04/15 12:59:12;;;;;;;0.95;0.80;;;33.30;27.20;;;;;;4955263;28;20485;-60
2021/04/15 13:01:39;;;;;;;3.03;0.70;;;34.50;26.20;;;;;;4955267;28;20261;-56
2021/04/15 13:04:14;;;;;;;0.95;0.70;;;35.30;25.40;;;;;;4955437;28;20258;-58
2021/04/15 13:07:10;;;;;;;6.00;0.80;;;35.20;25.30;;;;;;4957288;28;20229;-59
2021/04/15 13:09:38;;;;;;;1.70;0.70;;;35.70;25.10;;;;;;4974689;28;20242;-59
2021/04/15 13:12:31;;;;;;;1.00;1.00;;;36.00;24.60;;;;;;4974977;28;20239;-60
2021/04/15 13:14:59;;;;;;;1.05;0.80;;;35.70;25.10;;;;;;4954905;28;20282;-59
2021/04/15 13:17:46;;;;;;;1.63;0.80;;;35.90;24.70;;;;;;4955627;28;20239;-59
2021/04/15 13:20:15;;;;;;;1.30;0.70;;;35.60;24.90;;;;;;4954836;28;20236;-58